createdAt,value
2018-09-14T00:00:44.502Z,18.60
2018-09-14T00:03:14.579Z,18.60
2018-09-14T00:05:44.666Z,18.70
2018-09-14T00:08:14.747Z,18.70
2018-09-14T00:10:44.649Z,18.70
2018-09-14T00:13:14.738Z,18.70
2018-09-14T00:15:44.814Z,18.60
2018-09-14T00:18:14.875Z,18.60
2018-09-14T00:20:44.814Z,18.60
2018-09-14T00:23:14.782Z,18.60
2018-09-14T00:25:44.795Z,18.60
2018-09-14T00:28:14.812Z,18.50
2018-09-14T00:30:44.902Z,18.40
2018-09-14T00:33:14.942Z,18.50
2018-09-14T00:35:44.964Z,18.50
2018-09-14T00:38:14.897Z,18.30
2018-09-14T00:40:45.094Z,18.20
2018-09-14T00:43:15.214Z,18.10
2018-09-14T00:45:45.045Z,18.10
2018-09-14T00:48:15.045Z,18.00
2018-09-14T00:50:45.278Z,17.90
2018-09-14T00:53:15.255Z,17.80
2018-09-14T00:55:45.132Z,17.80
2018-09-14T00:58:15.090Z,17.70
2018-09-14T01:00:45.303Z,17.70
2018-09-14T01:03:15.271Z,17.60
2018-09-14T01:05:45.195Z,17.60
2018-09-14T01:08:16.232Z,17.60
2018-09-14T01:10:45.266Z,17.70
2018-09-14T01:13:15.267Z,17.60
2018-09-14T01:15:45.237Z,17.60
2018-09-14T01:18:15.418Z,17.50
2018-09-14T01:20:45.474Z,17.40
2018-09-14T01:23:15.430Z,17.30
2018-09-14T01:25:45.486Z,17.30
2018-09-14T01:28:15.489Z,17.30
2018-09-14T01:30:45.702Z,17.20
2018-09-14T01:33:15.508Z,17.20
2018-09-14T01:35:50.758Z,17.20
2018-09-14T01:38:19.961Z,17.20
2018-09-14T01:40:49.438Z,17.10
2018-09-14T01:43:18.669Z,17.10
2018-09-14T01:45:47.794Z,17.10
2018-09-14T01:48:16.954Z,17.20
2018-09-14T01:50:46.131Z,17.10
2018-09-14T01:53:15.797Z,17.10
2018-09-14T01:55:45.753Z,16.90
2018-09-14T01:58:15.830Z,16.90
2018-09-14T02:00:45.870Z,16.90
2018-09-14T02:03:15.755Z,16.90
2018-09-14T02:05:45.900Z,16.90
2018-09-14T02:08:15.847Z,16.90
2018-09-14T02:10:45.826Z,16.90
2018-09-14T02:13:15.946Z,16.90
2018-09-14T02:15:45.962Z,16.80
2018-09-14T02:18:15.995Z,16.80
2018-09-14T02:20:46.078Z,16.80
2018-09-14T02:23:15.994Z,16.90
2018-09-14T02:25:45.976Z,16.80
2018-09-14T02:28:15.998Z,16.70
2018-09-14T02:30:46.114Z,16.70
2018-09-14T02:33:16.091Z,16.80
2018-09-14T02:35:46.092Z,16.70
2018-09-14T02:38:16.136Z,16.60
2018-09-14T02:40:46.215Z,16.30
2018-09-14T02:43:16.152Z,16.40
2018-09-14T02:45:46.215Z,16.40
2018-09-14T02:48:16.188Z,16.30
2018-09-14T02:50:46.201Z,16.30
2018-09-14T02:53:16.298Z,16.20
2018-09-14T02:55:46.295Z,16.20
2018-09-14T02:58:16.324Z,16.10
2018-09-14T03:00:46.351Z,16.00
2018-09-14T03:03:16.301Z,16.00
2018-09-14T03:05:46.217Z,16.00
2018-09-14T03:08:16.322Z,16.00
2018-09-14T03:10:46.339Z,16.10
2018-09-14T03:13:16.422Z,16.00
2018-09-14T03:15:46.425Z,16.00
2018-09-14T03:18:16.994Z,16.00
2018-09-14T03:20:46.496Z,15.90
2018-09-14T03:23:16.491Z,15.90
2018-09-14T03:25:46.519Z,15.80
2018-09-14T03:28:16.575Z,15.80
2018-09-14T03:30:46.627Z,15.80
2018-09-14T03:33:16.522Z,15.80
2018-09-14T03:35:46.576Z,15.80
2018-09-14T03:38:16.639Z,15.70
2018-09-14T03:40:46.727Z,15.70
2018-09-14T03:43:16.815Z,15.60
2018-09-14T03:45:46.784Z,15.70
2018-09-14T03:48:16.688Z,15.70
2018-09-14T03:50:47.509Z,15.60
2018-09-14T03:53:16.750Z,15.80
2018-09-14T03:55:46.850Z,15.60
2018-09-14T03:58:16.879Z,15.70
2018-09-14T04:00:46.950Z,15.80
2018-09-14T04:03:16.153Z,15.70
2018-09-14T04:05:45.310Z,15.80
2018-09-14T04:08:14.502Z,15.80
2018-09-14T04:10:43.668Z,15.80
2018-09-14T04:13:12.878Z,15.90
2018-09-14T04:15:42.075Z,15.80
2018-09-14T04:18:11.326Z,15.90
2018-09-14T04:20:40.545Z,15.90
2018-09-14T04:23:09.748Z,15.70
2018-09-14T04:25:38.938Z,15.70
2018-09-14T04:28:14.930Z,15.70
2018-09-14T04:30:44.075Z,15.70
2018-09-14T04:33:14.398Z,15.80
2018-09-14T04:35:43.502Z,15.80
2018-09-14T04:38:12.753Z,15.80
2018-09-14T04:40:42.006Z,15.80
2018-09-14T04:43:11.254Z,15.80
2018-09-14T04:45:40.356Z,15.80
2018-09-14T04:48:09.577Z,15.80
2018-09-14T04:50:38.654Z,15.80
2018-09-14T04:53:07.947Z,15.90
2018-09-14T04:55:37.111Z,15.80
2018-09-14T04:58:06.432Z,15.80
2018-09-14T05:00:35.594Z,15.80
2018-09-14T05:03:04.816Z,15.80
2018-09-14T05:05:34.120Z,15.90
2018-09-14T05:08:03.342Z,15.80
2018-09-14T05:10:32.434Z,15.80
2018-09-14T05:13:01.610Z,15.80
2018-09-14T05:15:30.760Z,15.70
2018-09-14T05:18:01.452Z,15.80
2018-09-14T05:20:30.829Z,15.90
2018-09-14T05:23:00.351Z,15.90
2018-09-14T05:25:29.842Z,16.00
2018-09-14T05:27:59.069Z,16.00
2018-09-14T05:30:28.260Z,16.00
2018-09-14T05:32:57.472Z,16.00
2018-09-14T05:35:27.237Z,15.90
2018-09-14T05:37:56.401Z,15.90
2018-09-14T05:40:25.670Z,15.90
2018-09-14T05:42:54.910Z,16.00
2018-09-14T05:45:24.064Z,16.00
2018-09-14T05:47:53.249Z,15.90
2018-09-14T05:50:22.391Z,15.90
2018-09-14T05:52:51.633Z,16.00
2018-09-14T05:55:20.812Z,16.00
2018-09-14T05:57:49.990Z,16.00
2018-09-14T06:00:19.200Z,15.90
2018-09-14T06:02:48.386Z,16.10
2018-09-14T06:05:17.789Z,16.10
2018-09-14T06:07:46.998Z,16.20
2018-09-14T06:10:16.202Z,16.30
2018-09-14T06:12:45.398Z,16.10
2018-09-14T06:15:14.583Z,16.30
2018-09-14T06:17:43.714Z,16.50
2018-09-14T06:20:13.048Z,16.30
2018-09-14T06:22:42.316Z,16.10
2018-09-14T06:25:11.468Z,16.10
2018-09-14T06:27:40.531Z,16.10
2018-09-14T06:30:09.715Z,16.10
2018-09-14T06:32:38.878Z,16.10
2018-09-14T06:35:08.075Z,16.10
2018-09-14T06:37:37.273Z,16.10
2018-09-14T06:40:06.481Z,16.10
2018-09-14T06:42:35.555Z,16.20
2018-09-14T06:45:04.641Z,16.20
2018-09-14T06:47:33.717Z,16.20
2018-09-14T06:50:02.913Z,16.20
2018-09-14T06:52:32.040Z,16.20
2018-09-14T06:55:01.235Z,16.10
2018-09-14T06:57:30.495Z,16.40
2018-09-14T06:59:59.654Z,16.30
2018-09-14T07:02:29.066Z,16.30
2018-09-14T07:04:58.671Z,16.60
2018-09-14T07:07:28.949Z,16.80
2018-09-14T07:09:58.179Z,16.70
2018-09-14T07:12:27.345Z,16.50
2018-09-14T07:14:56.478Z,16.70
2018-09-14T07:17:25.655Z,16.60
2018-09-14T07:19:54.908Z,16.40
2018-09-14T07:22:24.087Z,16.30
2018-09-14T07:24:53.452Z,16.40
2018-09-14T07:27:22.668Z,16.50
2018-09-14T07:29:52.026Z,16.60
2018-09-14T07:32:21.282Z,16.50
2018-09-14T07:34:50.564Z,16.70
2018-09-14T07:37:19.763Z,16.80
2018-09-14T07:39:49.000Z,16.70
2018-09-14T07:42:18.201Z,16.50
2018-09-14T07:44:47.446Z,16.60
2018-09-14T07:47:16.723Z,16.50
2018-09-14T07:49:45.853Z,16.50
2018-09-14T07:52:15.008Z,16.60
2018-09-14T07:54:44.098Z,16.80
2018-09-14T07:57:13.373Z,17.10
2018-09-14T07:59:42.607Z,17.10
2018-09-14T08:02:11.654Z,17.10
2018-09-14T08:04:40.791Z,17.00
2018-09-14T08:07:09.954Z,17.00
2018-09-14T08:09:39.169Z,16.70
2018-09-14T08:12:08.372Z,16.70
2018-09-14T08:14:37.560Z,16.80
2018-09-14T08:17:06.929Z,17.10
2018-09-14T08:19:37.555Z,17.10
2018-09-14T08:22:06.778Z,17.00
2018-09-14T08:24:35.955Z,17.00
2018-09-14T08:27:05.169Z,17.00
2018-09-14T08:29:34.310Z,17.10
2018-09-14T08:32:03.481Z,17.10
2018-09-14T08:34:32.691Z,17.20
2018-09-14T08:37:01.871Z,17.20
2018-09-14T08:39:31.089Z,17.60
2018-09-14T08:42:00.276Z,17.40
2018-09-14T08:44:29.526Z,17.60
2018-09-14T08:46:59.058Z,17.80
2018-09-14T08:49:29.102Z,17.70
2018-09-14T08:51:59.031Z,17.80
2018-09-14T08:54:29.193Z,17.70
2018-09-14T08:56:59.201Z,17.80
2018-09-14T08:59:29.189Z,18.00
2018-09-14T09:01:59.221Z,18.00
2018-09-14T09:04:29.254Z,18.10
2018-09-14T09:06:59.184Z,18.30
2018-09-14T09:09:29.331Z,18.50
2018-09-14T09:11:59.260Z,18.50
2018-09-14T09:14:30.447Z,18.70
2018-09-14T09:16:59.711Z,18.70
2018-09-14T09:19:29.467Z,18.60
2018-09-14T09:21:59.638Z,18.40
2018-09-14T09:24:29.542Z,18.60
2018-09-14T09:26:59.530Z,18.60
2018-09-14T09:29:29.480Z,18.70
2018-09-14T09:31:59.596Z,18.60
2018-09-14T09:34:29.530Z,18.50
2018-09-14T09:36:59.738Z,18.70
2018-09-14T09:39:29.630Z,18.70
2018-09-14T09:41:59.545Z,18.80
2018-09-14T09:44:29.806Z,19.00
2018-09-14T09:47:00.241Z,19.30
2018-09-14T09:49:29.850Z,19.10
2018-09-14T09:51:59.742Z,19.30
2018-09-14T09:54:29.810Z,19.30
2018-09-14T09:56:59.919Z,19.30
2018-09-14T09:59:30.055Z,19.20
2018-09-14T10:02:04.918Z,19.00
2018-09-14T10:04:38.315Z,18.90
2018-09-14T10:07:07.467Z,19.30
2018-09-14T10:09:36.643Z,19.50
2018-09-14T10:12:05.897Z,19.60
2018-09-14T10:14:35.329Z,19.60
2018-09-14T10:17:04.534Z,19.60
2018-09-14T10:19:34.346Z,19.80
2018-09-14T10:22:03.441Z,20.00
2018-09-14T10:24:32.616Z,20.60
2018-09-14T10:27:01.850Z,20.90
2018-09-14T10:29:31.830Z,21.50
2018-09-14T10:32:00.996Z,21.50
2018-09-14T10:34:30.354Z,21.10
2018-09-14T10:37:00.375Z,21.10
2018-09-14T10:39:30.450Z,21.10
2018-09-14T10:42:00.350Z,21.10
2018-09-14T10:44:30.402Z,20.80
2018-09-14T10:47:00.294Z,20.60
2018-09-14T10:49:30.419Z,20.70
2018-09-14T10:52:00.552Z,20.50
2018-09-14T10:54:30.613Z,20.30
2018-09-14T10:57:00.582Z,20.40
2018-09-14T10:59:30.638Z,20.70
2018-09-14T11:02:00.842Z,20.90
2018-09-14T11:04:30.687Z,20.80
2018-09-14T11:07:00.710Z,21.40
2018-09-14T11:09:30.679Z,21.70
2018-09-14T11:12:00.739Z,21.80
2018-09-14T11:14:30.687Z,21.50
2018-09-14T11:17:00.858Z,22.10
2018-09-14T11:19:30.841Z,22.50
2018-09-14T11:22:01.010Z,22.40
2018-09-14T11:24:30.870Z,22.00
2018-09-14T11:27:00.902Z,21.70
2018-09-14T11:29:31.311Z,21.10
2018-09-14T11:32:01.001Z,20.40
2018-09-14T11:34:30.994Z,20.20
2018-09-14T11:37:01.051Z,20.00
2018-09-14T11:39:30.994Z,19.70
2018-09-14T11:42:00.997Z,19.40
2018-09-14T11:44:31.211Z,19.40
2018-09-14T11:47:01.076Z,19.40
2018-09-14T11:49:31.034Z,19.30
2018-09-14T11:52:01.261Z,19.20
2018-09-14T11:54:31.147Z,19.10
2018-09-14T11:57:01.228Z,19.10
2018-09-14T11:59:31.345Z,19.30
2018-09-14T12:02:01.269Z,19.00
2018-09-14T12:04:31.380Z,19.40
2018-09-14T12:07:01.405Z,21.20
2018-09-14T12:09:31.410Z,23.10
2018-09-14T12:12:01.413Z,24.60
2018-09-14T12:14:31.523Z,25.70
2018-09-14T12:17:01.422Z,26.40
2018-09-14T12:19:31.331Z,27.30
2018-09-14T12:22:01.569Z,28.00
2018-09-14T12:24:31.548Z,28.70
2018-09-14T12:27:01.517Z,29.20
2018-09-14T12:29:32.035Z,29.60
2018-09-14T12:32:01.545Z,29.60
2018-09-14T12:34:31.566Z,28.80
2018-09-14T12:37:01.662Z,28.70
2018-09-14T12:39:31.722Z,28.60
2018-09-14T12:42:01.835Z,28.50
2018-09-14T12:44:31.610Z,28.60
2018-09-14T12:47:01.806Z,28.00
2018-09-14T12:49:31.830Z,26.20
2018-09-14T12:56:58.127Z,23.70
2018-09-14T12:59:27.611Z,22.70
2018-09-14T13:01:56.805Z,22.40
2018-09-14T13:04:25.978Z,21.70
2018-09-14T13:06:55.090Z,21.50
2018-09-14T13:09:24.329Z,21.50
2018-09-14T13:11:53.546Z,21.80
2018-09-14T13:14:23.841Z,22.20
2018-09-14T13:16:53.015Z,22.60
2018-09-14T13:19:22.350Z,22.50
2018-09-14T13:21:51.488Z,22.30
2018-09-14T13:24:20.757Z,22.30
2018-09-14T13:26:49.950Z,22.40
2018-09-14T13:29:19.158Z,22.20
2018-09-14T13:31:48.337Z,22.20
2018-09-14T13:34:17.551Z,22.10
2018-09-14T13:36:46.651Z,22.10
2018-09-14T13:39:15.888Z,21.90
2018-09-14T13:41:45.110Z,21.50
2018-09-14T13:44:14.302Z,21.20
2018-09-14T13:46:43.554Z,20.90
2018-09-14T13:49:12.701Z,20.80
2018-09-14T13:51:41.875Z,20.60
2018-09-14T13:54:11.014Z,20.40
2018-09-14T13:56:40.119Z,20.60
2018-09-14T13:59:09.290Z,20.70
2018-09-14T14:01:38.488Z,21.00
2018-09-14T14:04:07.630Z,21.10
2018-09-14T14:06:37.654Z,21.20
2018-09-14T14:09:10.278Z,21.30
2018-09-14T14:11:39.541Z,21.30
2018-09-14T14:14:09.317Z,21.40
2018-09-14T14:16:38.607Z,21.40
2018-09-14T14:19:08.023Z,21.20
2018-09-14T14:21:37.533Z,21.00
2018-09-14T14:24:06.994Z,21.20
2018-09-14T14:26:36.198Z,21.20
2018-09-14T14:29:05.373Z,21.20
2018-09-14T14:31:34.584Z,21.20
2018-09-14T14:34:03.876Z,21.30
2018-09-14T14:36:33.941Z,21.40
2018-09-14T14:39:05.019Z,21.70
2018-09-14T14:41:34.379Z,21.60
2018-09-14T14:44:03.986Z,21.70
2018-09-14T14:46:33.982Z,21.60
2018-09-14T14:49:04.050Z,21.60
2018-09-14T14:51:33.979Z,21.50
2018-09-14T14:54:04.030Z,21.60
2018-09-14T14:56:34.155Z,21.60
2018-09-14T14:59:04.233Z,21.30
2018-09-14T15:01:34.187Z,21.30
2018-09-14T15:04:04.045Z,21.20
2018-09-14T15:06:34.021Z,21.20
2018-09-14T15:09:10.951Z,21.20
2018-09-14T15:11:40.262Z,21.20
2018-09-14T15:14:09.430Z,21.20
2018-09-14T15:16:38.668Z,21.20
2018-09-14T15:19:08.047Z,21.10
2018-09-14T15:21:37.162Z,21.00
2018-09-14T15:24:06.313Z,21.00
2018-09-14T15:26:35.611Z,21.10
2018-09-14T15:29:04.810Z,21.30
2018-09-14T15:31:34.294Z,21.30
2018-09-14T15:34:04.371Z,21.40
2018-09-14T15:36:34.298Z,21.30
2018-09-14T15:39:07.175Z,21.40
2018-09-14T15:41:36.310Z,21.30
2018-09-14T15:44:05.364Z,21.10
2018-09-14T15:46:34.458Z,21.00
2018-09-14T15:49:04.319Z,20.80
2018-09-14T15:51:37.498Z,20.80
2018-09-14T15:54:07.710Z,20.70
2018-09-14T15:56:36.780Z,20.70
2018-09-14T15:59:05.987Z,20.50
2018-09-14T16:01:35.134Z,20.50
2018-09-14T16:04:04.486Z,20.40
2018-09-14T16:06:34.641Z,20.30
2018-09-14T16:09:06.627Z,20.30
2018-09-14T16:11:36.026Z,20.30
2018-09-14T16:14:05.172Z,20.40
2018-09-14T16:16:34.700Z,20.20
2018-09-14T16:19:05.014Z,20.10
2018-09-14T16:21:34.738Z,20.10
2018-09-14T16:24:04.675Z,20.00
2018-09-14T16:26:34.632Z,20.00
2018-09-14T16:29:04.743Z,19.90
2018-09-14T16:31:34.820Z,19.80
2018-09-14T16:34:04.758Z,19.80
2018-09-14T16:36:34.908Z,19.80
2018-09-14T16:39:06.567Z,19.80
2018-09-14T16:41:35.766Z,19.80
2018-09-14T16:44:04.930Z,19.70
2018-09-14T16:46:34.882Z,19.70
2018-09-14T16:49:04.838Z,19.60
2018-09-14T16:51:35.089Z,19.60
2018-09-14T16:54:04.971Z,19.60
2018-09-14T16:56:35.022Z,19.50
2018-09-14T16:59:05.889Z,19.40
2018-09-14T17:01:35.010Z,19.40
2018-09-14T17:04:05.038Z,19.30
2018-09-14T17:06:35.079Z,19.30
2018-09-14T17:09:07.041Z,19.20
2018-09-14T17:11:36.266Z,19.10
2018-09-14T17:14:06.306Z,19.00
2018-09-14T17:16:35.556Z,19.00
2018-09-14T17:19:05.191Z,18.90
2018-09-14T17:21:35.183Z,18.90
2018-09-14T17:24:05.138Z,18.80
2018-09-14T17:26:35.172Z,18.80
2018-09-14T17:29:05.211Z,18.70
2018-09-14T17:31:35.130Z,18.70
2018-09-14T17:34:05.210Z,18.70
2018-09-14T17:36:35.250Z,18.70
2018-09-14T17:39:07.440Z,18.60
2018-09-14T17:41:36.672Z,18.50
2018-09-14T17:44:05.844Z,18.50
2018-09-14T17:46:35.213Z,18.50
2018-09-14T17:49:05.289Z,18.50
2018-09-14T17:51:35.313Z,18.40
2018-09-14T17:54:05.428Z,18.40
2018-09-14T17:56:35.412Z,18.40
2018-09-14T17:59:05.509Z,18.30
2018-09-14T18:01:35.439Z,18.30
2018-09-14T18:04:05.451Z,18.40
2018-09-14T18:06:35.362Z,18.30
2018-09-14T18:09:09.220Z,18.30
2018-09-14T18:11:38.659Z,18.30
2018-09-14T18:14:07.783Z,18.30
2018-09-14T18:16:36.989Z,18.30
2018-09-14T18:19:06.322Z,18.20
2018-09-14T18:21:42.418Z,18.20
2018-09-14T18:24:11.626Z,18.20
2018-09-14T18:26:40.842Z,18.20
2018-09-14T18:29:10.022Z,18.20
2018-09-14T18:31:39.274Z,18.30
2018-09-14T18:34:08.474Z,18.40
2018-09-14T18:36:37.696Z,18.50
2018-09-14T18:39:10.365Z,18.60
2018-09-14T18:41:39.895Z,18.60
2018-09-14T18:44:09.193Z,18.60
2018-09-14T18:46:38.642Z,18.80
2018-09-14T18:49:08.214Z,18.40
2018-09-14T18:51:37.413Z,18.30
2018-09-14T18:54:06.518Z,18.20
2018-09-14T18:56:35.858Z,18.30
2018-09-14T18:59:06.300Z,18.80
2018-09-14T19:01:35.943Z,19.20
2018-09-14T19:04:06.051Z,19.40
2018-09-14T19:06:35.898Z,19.50
2018-09-14T19:09:09.695Z,19.60
2018-09-14T19:11:38.985Z,19.50
2018-09-14T19:14:08.164Z,19.40
2018-09-14T19:16:37.509Z,19.20
2018-09-14T19:19:06.767Z,19.10
2018-09-14T19:21:36.034Z,19.00
2018-09-14T19:24:06.357Z,18.90
2018-09-14T19:26:36.134Z,18.80
2018-09-14T19:29:06.178Z,18.70
2018-09-14T19:31:36.470Z,18.50
2018-09-14T19:34:06.150Z,18.20
2018-09-14T19:36:36.239Z,18.10
2018-09-14T19:39:10.227Z,18.00
2018-09-14T19:41:39.400Z,18.30
2018-09-14T19:44:08.657Z,18.40
2018-09-14T19:46:37.787Z,18.20
2018-09-14T19:49:06.986Z,18.40
2018-09-14T19:51:36.438Z,18.50
2018-09-14T19:54:06.398Z,18.50
2018-09-14T19:56:36.398Z,18.50
2018-09-14T19:59:06.327Z,18.40
2018-09-14T20:01:36.442Z,18.40
2018-09-14T20:04:06.498Z,18.30
2018-09-14T20:06:36.512Z,18.00
2018-09-14T20:09:11.422Z,17.80
2018-09-14T20:11:40.860Z,17.80
2018-09-14T20:14:09.842Z,18.30
2018-09-14T20:16:38.959Z,18.70
2018-09-14T20:19:08.085Z,18.80
2018-09-14T20:21:37.125Z,18.80
2018-09-14T20:24:07.384Z,18.70
2018-09-14T20:26:36.530Z,18.90
2018-09-14T20:29:06.588Z,18.70
2018-09-14T20:31:36.729Z,18.60
2018-09-14T20:34:06.689Z,18.30
2018-09-14T20:36:36.710Z,18.60
2018-09-14T20:39:09.732Z,18.70
2018-09-14T20:41:38.878Z,18.60
2018-09-14T20:44:08.026Z,18.20
2018-09-14T20:46:37.331Z,18.20
2018-09-14T20:49:06.781Z,17.80
2018-09-14T20:51:36.893Z,17.60
2018-09-14T20:54:06.964Z,17.80
2018-09-14T20:56:37.186Z,17.80
2018-09-14T20:59:06.926Z,17.70
2018-09-14T21:01:36.875Z,17.60
2018-09-14T21:04:07.086Z,17.60
2018-09-14T21:06:36.965Z,17.70
2018-09-14T21:09:09.459Z,17.70
2018-09-14T21:11:38.973Z,17.70
2018-09-14T21:14:08.180Z,17.60
2018-09-14T21:16:37.385Z,17.50
2018-09-14T21:19:07.154Z,17.60
2018-09-14T21:21:37.108Z,17.60
2018-09-14T21:24:07.011Z,17.60
2018-09-14T21:26:37.047Z,17.60
2018-09-14T21:29:07.316Z,17.50
2018-09-14T21:31:37.147Z,17.40
2018-09-14T21:34:07.156Z,17.30
2018-09-14T21:36:37.215Z,17.40
2018-09-14T21:39:11.088Z,17.50
2018-09-14T21:41:40.473Z,17.50
2018-09-14T21:44:10.470Z,17.40
2018-09-14T21:46:39.888Z,17.40
2018-09-14T21:49:09.391Z,17.40
2018-09-14T21:51:38.518Z,17.30
2018-09-14T21:54:07.742Z,17.30
2018-09-14T21:56:37.507Z,17.40
2018-09-14T21:59:07.449Z,17.50
2018-09-14T22:01:37.378Z,17.40
2018-09-14T22:04:07.562Z,17.00
2018-09-14T22:06:37.584Z,16.80
2018-09-14T22:09:09.879Z,16.70
2018-09-14T22:11:39.074Z,16.70
2018-09-14T22:14:08.331Z,16.60
2018-09-14T22:16:37.643Z,16.70
2018-09-14T22:19:07.626Z,17.10
2018-09-14T22:21:37.732Z,17.30
2018-09-14T22:24:07.655Z,16.90
2018-09-14T22:26:37.690Z,16.80
2018-09-14T22:29:07.791Z,16.80
2018-09-14T22:31:44.462Z,16.80
2018-09-14T22:34:13.693Z,17.10
2018-09-14T22:36:42.867Z,17.20
2018-09-14T22:39:13.289Z,17.20
2018-09-14T22:41:42.569Z,17.20
2018-09-14T22:44:11.765Z,17.10
2018-09-14T22:46:40.861Z,17.10
2018-09-14T22:49:10.151Z,17.00
2018-09-14T22:51:39.294Z,17.00
2018-09-14T22:54:08.483Z,17.00
2018-09-14T22:56:37.947Z,17.00
2018-09-14T22:59:08.300Z,16.80
2018-09-14T23:01:37.981Z,16.70
2018-09-14T23:04:08.131Z,16.70
2018-09-14T23:06:38.227Z,16.60
2018-09-14T23:09:08.840Z,16.50
2018-09-14T23:11:38.171Z,16.50
2018-09-14T23:14:08.207Z,16.90
2018-09-14T23:16:38.322Z,16.90
2018-09-14T23:19:08.299Z,16.90
2018-09-14T23:21:38.297Z,17.10
2018-09-14T23:24:08.178Z,17.10
2018-09-14T23:26:38.231Z,17.00
2018-09-14T23:29:08.353Z,16.80
2018-09-14T23:31:38.606Z,16.80
2018-09-14T23:34:08.438Z,16.60
2018-09-14T23:36:38.514Z,16.50
2018-09-14T23:39:10.390Z,16.80
2018-09-14T23:41:39.814Z,17.00
2018-09-14T23:44:09.105Z,17.00
2018-09-14T23:46:38.573Z,17.00
2018-09-14T23:49:08.555Z,17.00
2018-09-14T23:51:38.665Z,17.10
2018-09-14T23:54:08.657Z,17.10
2018-09-14T23:56:38.687Z,17.20
2018-09-14T23:59:08.696Z,17.30
